Time;durP1;ratioP1;P1;durP2;ratioP2;P2;SDS_P1;SDS_P2;PMS_P1;PMS_P2;Temp;Humidity;BMP_temperature;BMP_pressure;BME280_temperature;BME280_humidity;BME280_pressure;Samples;Min_cycle;Max_cycle;Signal;HPM_P1;HPM_P2
2022/05/27 00:01:53;;;;;;;25.05;7.75;;;;;;;13.49;100.00;164092.06;5071054;28;20044;-63
2022/05/27 00:04:18;;;;;;;13.05;7.05;;;;;;;13.44;100.00;164078.56;5072797;28;20024;-62
2022/05/27 00:06:43;;;;;;;12.18;7.32;;;;;;;13.45;100.00;164081.22;5070794;28;20051;-62
2022/05/27 00:09:09;;;;;;;14.05;9.07;;;;;;;13.41;100.00;164070.44;5072481;28;20050;-62
2022/05/27 00:11:34;;;;;;;12.40;7.07;;;;;;;13.46;100.00;164083.94;5071161;28;20071;-62
2022/05/27 00:14:00;;;;;;;16.10;8.07;;;;;;;13.40;100.00;164069.09;5071461;28;20028;-62
2022/05/27 00:16:27;;;;;;;13.75;7.90;;;;;;;13.51;100.00;164096.13;5071043;28;20157;-62
2022/05/27 00:18:52;;;;;;;14.93;7.75;;;;;;;13.51;100.00;164097.50;5072204;28;20024;-62
2022/05/27 00:21:17;;;;;;;11.52;8.20;;;;;;;13.49;100.00;164093.41;5070977;28;20048;-62
2022/05/27 00:23:43;;;;;;;11.50;7.95;;;;;;;13.53;100.00;164102.88;5071641;28;20020;-63
2022/05/27 00:26:09;;;;;;;19.05;10.18;;;;;;;13.50;100.00;164094.78;5071030;28;20071;-62
2022/05/27 00:28:34;;;;;;;11.48;9.27;;;;;;;13.58;100.00;164115.03;5071940;28;20039;-61
2022/05/27 00:31:00;;;;;;;16.02;9.25;;;;;;;13.59;100.00;164119.09;5070144;28;20033;-61
2022/05/27 00:33:25;;;;;;;8.85;6.78;;;;;;;13.59;100.00;164119.09;5072346;28;20020;-60
2022/05/27 00:35:50;;;;;;;11.50;8.13;;;;;;;13.59;100.00;164117.75;5064630;28;20348;-60
2022/05/27 00:38:17;;;;;;;16.92;9.32;;;;;;;13.60;100.00;164121.78;5066332;28;20032;-61
2022/05/27 00:40:45;;;;;;;14.05;9.48;;;;;;;13.57;100.00;164112.31;5068801;28;20044;-61
2022/05/27 00:43:11;;;;;;;17.23;9.68;;;;;;;13.47;100.00;164088.03;5051465;28;20025;-60
2022/05/27 00:45:39;;;;;;;17.08;8.68;;;;;;;13.39;100.00;164065.00;5050044;28;20429;-60
2022/05/27 00:48:10;;;;;;;16.25;11.57;;;;;;;13.32;100.00;164047.41;5051789;28;20480;-60
2022/05/27 00:50:40;;;;;;;17.23;10.68;;;;;;;13.24;100.00;164025.78;5050438;28;20045;-61
2022/05/27 00:53:09;;;;;;;15.45;10.52;;;;;;;13.10;100.00;163990.63;5051701;28;20028;-61
2022/05/27 00:55:36;;;;;;;;;;;;;;;13.06;100.00;163979.78;5051996;28;20033;-61
2022/05/27 00:58:09;;;;;;;23.08;12.40;;;;;;;13.00;100.00;163964.91;5071404;28;19956;-61
2022/05/27 01:00:36;;;;;;;18.38;10.65;;;;;;;12.97;100.00;163956.81;5069837;28;20036;-61
2022/05/27 01:03:03;;;;;;;20.10;13.90;;;;;;;12.96;100.00;163954.13;5071743;28;20028;-62
2022/05/27 01:05:29;;;;;;;14.75;10.38;;;;;;;12.89;100.00;163935.19;5069965;28;20093;-61
2022/05/27 01:07:58;;;;;;;16.00;10.18;;;;;;;12.86;100.00;163927.06;5070602;28;20058;-61
2022/05/27 01:10:25;;;;;;;18.77;10.65;;;;;;;12.82;100.00;163916.28;5069377;28;20024;-61
2022/05/27 01:13:09;;;;;;;11.23;7.47;;;;;;;12.79;100.00;163908.13;5070940;28;20028;-62
2022/05/27 01:15:54;;;;;;;12.55;7.15;;;;;;;12.79;100.00;163908.13;5069516;28;20036;-61
2022/05/27 01:21:42;;;;;;;13.70;7.05;;;;;;;12.78;100.00;163905.44;5069228;28;20166;-61
2022/05/27 01:24:41;;;;;;;8.17;7.40;;;;;;;12.80;100.00;163910.84;5070481;28;20084;-61
2022/05/27 01:27:14;;;;;;;12.00;8.23;;;;;;;12.77;100.00;163902.75;5069205;28;20454;-62
2022/05/27 01:30:30;;;;;;;11.88;8.30;;;;;;;12.78;100.00;163906.81;5070426;28;20387;-61
2022/05/27 01:33:33;;;;;;;11.23;7.40;;;;;;;12.75;100.00;163897.34;5067745;28;20496;-61
2022/05/27 01:36:01;;;;;;;16.08;8.00;;;;;;;12.73;100.00;163891.94;5068576;28;20199;-61
2022/05/27 01:38:37;;;;;;;7.95;6.55;;;;;;;12.68;100.00;163879.75;5070692;28;20150;-60
2022/05/27 01:41:06;;;;;;;13.27;6.85;;;;;;;12.66;100.00;163874.34;5069157;28;20032;-61
2022/05/27 01:43:53;;;;;;;6.72;5.88;;;;;;;12.65;100.00;163873.00;5070423;28;20107;-61
2022/05/27 01:46:26;;;;;;;8.52;5.03;;;;;;;12.63;100.00;163867.59;5069364;28;20119;-61
2022/05/27 01:49:09;;;;;;;13.70;5.80;;;;;;;12.62;100.00;163864.88;5070233;28;20035;-61
2022/05/27 01:51:44;;;;;;;6.00;4.13;;;;;;;12.47;100.00;163825.72;5068471;28;20052;-60
2022/05/27 01:54:30;;;;;;;10.15;5.53;;;;;;;12.53;100.00;163840.59;5070713;28;20173;-61
2022/05/27 01:57:05;;;;;;;10.93;5.95;;;;;;;12.52;100.00;163839.22;5068940;28;20064;-61
2022/05/27 01:59:45;;;;;;;7.80;4.15;;;;;;;12.48;100.00;163827.03;5069954;28;20456;-62
2022/05/27 02:02:15;;;;;;;7.55;5.20;;;;;;;12.45;100.00;163820.28;5068713;28;20527;-62
2022/05/27 02:04:55;;;;;;;5.07;4.22;;;;;;;12.47;100.00;163825.72;5050310;28;20543;-62
2022/05/27 02:07:29;;;;;;;7.18;4.78;;;;;;;12.52;100.00;163837.88;5049147;28;20440;-62
2022/05/27 02:10:01;;;;;;;5.28;4.40;;;;;;;12.48;100.00;163827.03;5061230;28;20089;-62
2022/05/27 02:12:32;;;;;;;8.43;4.82;;;;;;;12.46;100.00;163821.66;5068545;28;20059;-61
2022/05/27 02:15:04;;;;;;;5.60;4.43;;;;;;;12.44;100.00;163817.59;5070284;28;20032;-61
2022/05/27 02:17:37;;;;;;;4.55;3.90;;;;;;;12.46;100.00;163823.00;5068803;28;20044;-62
2022/05/27 02:20:10;;;;;;;12.07;5.53;;;;;;;12.43;100.00;163814.91;5070102;28;20365;-61
2022/05/27 02:22:41;;;;;;;8.10;4.95;;;;;;;12.40;100.00;163805.47;5049109;28;20040;-62
2022/05/27 02:25:16;;;;;;;6.60;4.72;;;;;;;12.42;100.00;163810.84;5049915;28;20045;-62
2022/05/27 02:27:46;;;;;;;11.23;6.53;;;;;;;12.43;100.00;163813.53;5068527;28;20041;-62
2022/05/27 02:30:15;;;;;;;7.85;5.35;;;;;;;12.46;100.00;163821.66;5068720;28;20553;-60
2022/05/27 02:32:44;;;;;;;;;;;;;;;12.43;100.00;163814.91;5070498;28;20035;-60
2022/05/27 02:35:28;;;;;;;10.70;5.30;;;;;;;12.47;100.00;163824.38;5068694;28;19963;-60
2022/05/27 02:37:59;;;;;;;6.85;5.57;;;;;;;12.44;100.00;163816.25;5073279;28;20514;-60
2022/05/27 02:40:44;;;;;;;11.52;6.85;;;;;;;12.35;100.00;163794.63;5072652;28;20028;-60
2022/05/27 02:43:35;;;;;;;12.55;5.97;;;;;;;12.33;100.00;163789.22;5074010;28;20035;-59
2022/05/27 02:46:06;;;;;;;8.82;5.80;;;;;;;12.35;100.00;163793.28;5050987;28;20036;-59
2022/05/27 02:48:40;;;;;;;8.80;7.22;;;;;;;12.37;100.00;163800.03;5074114;28;20104;-59
2022/05/27 02:51:27;;;;;;;16.30;7.20;;;;;;;12.40;100.00;163805.47;5072409;28;20037;-59
2022/05/27 02:54:12;;;;;;;7.05;6.32;;;;;;;12.40;100.00;163805.47;5073536;28;20031;-59
2022/05/27 02:56:46;;;;;;;8.80;6.45;;;;;;;12.41;100.00;163808.13;5071101;28;20036;-59
2022/05/27 02:59:17;;;;;;;8.88;7.03;;;;;;;12.40;100.00;163805.47;5074294;28;20435;-59
2022/05/27 03:01:43;;;;;;;15.18;6.95;;;;;;;12.40;100.00;163805.47;5072300;28;20504;-59
2022/05/27 03:04:09;;;;;;;13.45;7.53;;;;;;;12.36;100.00;163797.34;5074008;28;20047;-59
2022/05/27 03:06:50;;;;;;;33.55;9.30;;;;;;;12.31;100.00;163783.84;5072240;28;20044;-59
2022/05/27 03:09:27;;;;;;;8.38;6.32;;;;;;;12.24;100.00;163764.91;5073293;28;20052;-59
2022/05/27 03:12:05;;;;;;;12.57;7.63;;;;;;;12.28;100.00;163775.72;5071580;28;20660;-59
2022/05/27 03:14:55;;;;;;;10.75;7.97;;;;;;;12.26;100.00;163770.28;5073627;28;20162;-59
2022/05/27 03:17:45;;;;;;;12.73;6.65;;;;;;;12.24;100.00;163764.91;5072361;28;20496;-59
2022/05/27 03:20:34;;;;;;;10.30;7.85;;;;;;;12.25;100.00;163766.25;5071833;28;20106;-59
2022/05/27 03:23:18;;;;;;;12.73;7.45;;;;;;;12.25;100.00;163767.59;5073028;28;20035;-59
2022/05/27 03:25:52;;;;;;;11.38;7.70;;;;;;;12.22;100.00;163759.50;5071721;28;20041;-59
2022/05/27 03:28:46;;;;;;;12.57;6.55;;;;;;;12.19;100.00;163751.38;5072882;28;20111;-58
2022/05/27 03:31:27;;;;;;;12.27;8.50;;;;;;;12.19;100.00;163751.38;5071905;28;20044;-59
2022/05/27 03:34:06;;;;;;;9.07;6.40;;;;;;;12.18;100.00;163748.66;5072885;28;20020;-60
2022/05/27 03:36:42;;;;;;;10.90;7.25;;;;;;;12.19;100.00;163751.38;5071868;28;20128;-60
2022/05/27 03:39:21;;;;;;;12.00;7.35;;;;;;;12.22;100.00;163759.50;5073054;28;20050;-60
2022/05/27 03:41:55;;;;;;;15.43;7.00;;;;;;;12.17;100.00;163746.00;5071167;28;20052;-60
2022/05/27 03:44:27;;;;;;;9.65;7.22;;;;;;;12.11;100.00;163731.13;5073282;28;20020;-61
2022/05/27 03:46:54;;;;;;;18.85;8.65;;;;;;;12.12;100.00;163733.84;5070996;28;20492;-60
2022/05/27 03:49:19;;;;;;;13.13;7.07;;;;;;;12.09;100.00;163725.72;5072634;28;20074;-60
2022/05/27 03:51:56;;;;;;;8.18;7.13;;;;;;;12.09;100.00;163725.72;5071323;28;20036;-60
2022/05/27 03:54:22;;;;;;;11.52;6.40;;;;;;;12.09;100.00;163724.38;5072612;28;20028;-60
2022/05/27 03:56:48;;;;;;;14.30;6.65;;;;;;;12.11;100.00;163729.75;5071007;28;20041;-59
2022/05/27 03:59:15;;;;;;;8.82;6.32;;;;;;;12.10;100.00;163727.09;5073246;28;20028;-60
2022/05/27 04:01:48;;;;;;;13.95;7.07;;;;;;;12.09;100.00;163724.38;5071349;28;20178;-60
2022/05/27 04:04:16;;;;;;;13.43;7.53;;;;;;;12.12;100.00;163732.47;5072495;28;20028;-61
2022/05/27 04:06:42;;;;;;;14.10;8.25;;;;;;;12.18;100.00;163748.66;5071120;28;20505;-60
2022/05/27 04:09:08;;;;;;;12.38;7.25;;;;;;;12.14;100.00;163737.88;5072349;28;20021;-60
2022/05/27 04:11:34;;;;;;;10.88;7.53;;;;;;;12.23;100.00;163762.22;5070800;28;20472;-62
2022/05/27 04:13:59;;;;;;;11.98;7.32;;;;;;;12.29;100.00;163777.03;5071829;28;20044;-61
2022/05/27 04:16:25;;;;;;;18.77;7.72;;;;;;;12.18;100.00;163748.66;5070952;28;20419;-60
2022/05/27 04:18:50;;;;;;;12.32;6.93;;;;;;;12.29;100.00;163778.41;5071910;28;20059;-60
2022/05/27 04:21:16;;;;;;;8.45;6.35;;;;;;;12.32;100.00;163786.50;5070596;28;20036;-57
2022/05/27 04:23:42;;;;;;;14.90;6.68;;;;;;;12.36;100.00;163797.34;5071927;28;20039;-60
2022/05/27 04:26:08;;;;;;;21.85;8.57;;;;;;;12.40;100.00;163805.47;5070469;28;20514;-60
2022/05/27 04:28:34;;;;;;;13.40;6.28;;;;;;;12.42;100.00;163812.22;5072272;28;20380;-61
2022/05/27 04:31:00;;;;;;;17.80;9.15;;;;;;;12.44;100.00;163816.25;5069983;28;20055;-60
2022/05/27 04:33:25;;;;;;;12.23;6.88;;;;;;;12.46;100.00;163821.66;5070535;28;20032;-60
2022/05/27 04:35:50;;;;;;;8.80;5.40;;;;;;;12.44;100.00;163816.25;5069699;28;20048;-60
2022/05/27 04:38:16;;;;;;;12.23;6.65;;;;;;;12.46;100.00;163821.66;5071711;28;20043;-60
2022/05/27 04:40:41;;;;;;;19.10;7.90;;;;;;;12.45;100.00;163818.97;5069660;28;20055;-60
2022/05/27 04:43:07;;;;;;;14.55;6.85;;;;;;;12.50;100.00;163832.47;5072412;28;20033;-60
2022/05/27 04:45:33;;;;;;;16.90;8.25;;;;;;;12.43;100.00;163813.53;5063595;28;20044;-60
2022/05/27 04:47:59;;;;;;;19.35;9.18;;;;;;;12.42;100.00;163810.84;5051300;28;20025;-60
2022/05/27 04:50:25;;;;;;;12.18;7.15;;;;;;;12.40;100.00;163805.47;5052601;28;20139;-60
2022/05/27 04:52:51;;;;;;;14.70;6.15;;;;;;;12.48;100.00;163827.03;5066907;28;20077;-61
2022/05/27 04:55:17;;;;;;;11.68;6.70;;;;;;;12.43;100.00;163813.53;5060754;28;20029;-60
2022/05/27 04:57:50;;;;;;;13.50;8.23;;;;;;;12.40;100.00;163805.47;5056595;28;20102;-60
2022/05/27 05:00:28;;;;;;;17.25;7.20;;;;;;;12.35;100.00;163793.28;5057038;28;20024;-60
2022/05/27 05:02:54;;;;;;;18.88;7.97;;;;;;;12.30;100.00;163781.13;5060907;28;20103;-60
2022/05/27 05:05:23;;;;;;;20.58;8.77;;;;;;;12.27;100.00;163773.00;5058620;28;20025;-60
2022/05/27 05:07:51;;;;;;;14.45;9.23;;;;;;;12.31;100.00;163783.84;5060236;28;20057;-60
2022/05/27 05:10:21;;;;;;;13.27;7.43;;;;;;;12.47;100.00;163824.38;5057593;28;20353;-61
2022/05/27 05:12:48;;;;;;;15.32;7.97;;;;;;;12.48;100.00;163827.03;5059925;28;20020;-60
2022/05/27 05:15:14;;;;;;;8.45;6.00;;;;;;;12.47;100.00;163824.38;5059236;28;20016;-60
2022/05/27 05:17:39;;;;;;;16.13;7.15;;;;;;;12.42;100.00;163810.84;5060475;28;20031;-60
2022/05/27 05:20:06;;;;;;;16.38;6.25;;;;;;;12.53;100.00;163840.59;5059054;28;20021;-60
2022/05/27 05:22:32;;;;;;;6.65;5.40;;;;;;;12.45;100.00;163818.97;5058091;28;20095;-60
2022/05/27 05:24:57;;;;;;;19.35;7.90;;;;;;;12.52;100.00;163837.88;5058599;28;20506;-60
2022/05/27 05:27:25;;;;;;;16.25;6.18;;;;;;;12.50;100.00;163832.47;5058937;28;20458;-61
2022/05/27 05:29:55;;;;;;;14.68;7.25;;;;;;;12.52;100.00;163837.88;5057245;28;20052;-58
2022/05/27 05:32:21;;;;;;;17.42;6.15;;;;;;;12.51;100.00;163835.16;5056804;28;20080;-58
2022/05/27 05:34:47;;;;;;;24.13;6.80;;;;;;;12.58;100.00;163854.09;5054343;28;20044;-58
2022/05/27 05:37:12;;;;;;;7.90;6.05;;;;;;;12.61;100.00;163862.22;5048145;28;20055;-58
2022/05/27 05:39:38;;;;;;;14.73;5.97;;;;;;;12.67;100.00;163878.44;5049911;28;20091;-59
2022/05/27 05:42:05;;;;;;;8.48;5.40;;;;;;;12.77;100.00;163904.09;5048975;28;20033;-59
2022/05/27 05:44:31;;;;;;;22.53;7.80;;;;;;;12.82;100.00;163917.59;5049711;28;20031;-59
2022/05/27 05:46:57;;;;;;;12.73;6.30;;;;;;;12.83;100.00;163918.97;5048463;28;20464;-59
2022/05/27 05:49:24;;;;;;;9.23;5.72;;;;;;;12.93;100.00;163945.97;5063600;28;20043;-58
2022/05/27 05:51:51;;;;;;;14.60;5.47;;;;;;;13.02;100.00;163970.31;5067381;28;20435;-58
2022/05/27 05:54:17;;;;;;;10.57;4.28;;;;;;;13.04;100.00;163973.03;5069870;28;20028;-58
2022/05/27 05:56:43;;;;;;;9.57;3.92;;;;;;;13.16;100.00;164005.47;5067198;28;20124;-60
2022/05/27 05:59:08;;;;;;;7.72;4.35;;;;;;;13.26;100.00;164031.16;5069418;28;20020;-61
2022/05/27 06:01:34;;;;;;;14.60;4.38;;;;;;;13.38;100.00;164062.25;5068391;28;20047;-60
2022/05/27 06:04:00;;;;;;;16.75;5.25;;;;;;;13.26;100.00;164032.53;5068888;28;20074;-57
2022/05/27 06:06:25;;;;;;;9.55;4.45;;;;;;;13.36;100.00;164056.88;5067840;28;20523;-57
2022/05/27 06:08:50;;;;;;;20.30;6.50;;;;;;;13.47;100.00;164086.66;5069327;28;20434;-57
2022/05/27 06:11:16;;;;;;;7.85;4.10;;;;;;;13.49;100.00;164092.06;5066948;28;20045;-58
2022/05/27 06:13:41;;;;;;;13.20;5.93;;;;;;;13.64;100.00;164132.63;5069763;28;20039;-57
2022/05/27 06:16:08;;;;;;;13.95;4.93;;;;;;;13.65;100.00;164133.97;5068246;28;20541;-57
2022/05/27 06:18:33;;;;;;;10.57;3.95;;;;;;;13.76;100.00;164162.38;5069542;28;20559;-57
2022/05/27 06:20:59;;;;;;;11.15;4.75;;;;;;;13.88;100.00;164194.84;5067940;28;20136;-57
2022/05/27 06:23:28;;;;;;;13.40;3.95;;;;;;;14.05;100.00;164238.09;5068672;28;20033;-58
2022/05/27 06:25:57;;;;;;;;;;;;;;;14.12;100.00;164258.41;5067953;28;20054;-58
2022/05/27 06:36:44;;;;;;;11.02;4.90;;;;;;;14.54;100.00;164368.00;5066226;28;20048;-58
2022/05/27 06:39:09;;;;;;;12.43;3.75;;;;;;;14.88;100.00;164457.34;5067549;28;20104;-58
2022/05/27 06:41:35;;;;;;;15.40;4.82;;;;;;;14.98;100.00;164483.06;5066301;28;20109;-58
2022/05/27 06:44:02;;;;;;;17.63;5.70;;;;;;;15.10;100.00;164512.84;5068723;28;20108;-58
2022/05/27 06:46:28;;;;;;;6.35;2.65;;;;;;;15.16;100.00;164530.41;5067154;28;20342;-57
2022/05/27 06:48:54;;;;;;;9.98;3.53;;;;;;;15.39;100.00;164589.97;5068079;28;20030;-57
2022/05/27 06:51:19;;;;;;;11.13;3.58;;;;;;;15.61;100.00;164646.84;5067439;28;20107;-57
2022/05/27 06:53:45;;;;;;;15.57;3.38;;;;;;;15.73;100.00;164679.38;5068383;28;20020;-57
2022/05/27 06:56:11;;;;;;;16.77;3.97;;;;;;;15.83;100.00;164706.47;5063133;28;20048;-57
2022/05/27 06:58:37;;;;;;;7.60;2.53;;;;;;;15.82;100.00;164703.69;5069313;28;20054;-58
2022/05/27 07:01:03;;;;;;;11.68;3.83;;;;;;;15.73;100.00;164677.97;5067480;28;20048;-57
2022/05/27 07:03:28;;;;;;;10.75;2.53;;;;;;;15.51;100.00;164622.50;5068871;28;20012;-57
2022/05/27 07:05:54;;;;;;;11.95;3.35;;;;;;;15.45;100.00;164606.22;5067930;28;20059;-57
2022/05/27 07:08:19;;;;;;;12.80;3.70;;;;;;;15.28;100.00;164560.22;5066712;28;20471;-57
2022/05/27 07:10:44;;;;;;;26.50;12.60;;;;;;;15.35;100.00;164580.50;5062232;28;20072;-57
2022/05/27 07:13:10;;;;;;;8.55;3.40;;;;;;;15.42;100.00;164598.13;5051182;28;20017;-57
2022/05/27 07:15:35;;;;;;;7.70;2.60;;;;;;;15.54;100.00;164630.59;5048554;28;20522;-57
2022/05/27 07:18:06;;;;;;;9.15;3.05;;;;;;;15.66;100.00;164661.75;5058634;28;20020;-57
2022/05/27 07:20:32;;;;;;;15.05;2.85;;;;;;;15.60;100.00;164645.50;5062220;28;20045;-57
2022/05/27 07:22:57;;;;;;;13.05;3.80;;;;;;;15.93;100.00;164730.84;5072405;28;20054;-57
2022/05/27 07:25:23;;;;;;;11.43;4.32;;;;;;;15.99;100.00;164747.09;5071153;28;20129;-58
2022/05/27 07:27:48;;;;;;;8.43;3.70;;;;;;;16.11;100.00;164779.63;5072405;28;20070;-58
2022/05/27 07:30:16;;;;;;;9.48;4.00;;;;;;;16.11;100.00;164779.63;5069164;28;20039;-58
2022/05/27 07:32:43;;;;;;;38.80;4.18;;;;;;;15.99;100.00;164747.09;5075769;28;20490;-58
2022/05/27 07:35:10;;;;;;;15.50;3.88;;;;;;;15.76;100.00;164687.47;5085768;28;20036;-58
2022/05/27 07:37:36;;;;;;;13.52;2.53;;;;;;;15.70;100.00;164671.22;5069507;28;20021;-58
2022/05/27 07:40:01;;;;;;;14.13;4.03;;;;;;;15.60;100.00;164644.16;5068385;28;20392;-58
2022/05/27 07:42:26;;;;;;;10.13;3.53;;;;;;;15.83;100.00;164705.13;5067074;28;20032;-58
2022/05/27 07:44:52;;;;;;;8.88;3.40;;;;;;;15.83;100.00;164706.47;5067387;28;20058;-58
2022/05/27 07:47:18;;;;;;;11.18;5.22;;;;;;;16.01;100.00;164752.53;5060501;28;20098;-58
2022/05/27 07:49:44;;;;;;;12.77;3.85;;;;;;;15.90;100.00;164722.75;5063075;28;20028;-59
2022/05/27 07:52:09;;;;;;;13.73;4.88;;;;;;;15.94;100.00;164734.91;5059667;28;20377;-59
2022/05/27 07:54:34;;;;;;;11.13;3.92;;;;;;;15.88;100.00;164717.31;5059139;28;20031;-58
2022/05/27 07:57:00;;;;;;;19.50;3.80;;;;;;;15.72;100.00;164676.66;5060073;28;20110;-58
2022/05/27 07:59:26;;;;;;;13.43;3.53;;;;;;;15.51;100.00;164621.13;5062965;28;20166;-58
2022/05/27 08:01:51;;;;;;;7.35;3.05;;;;;;;15.83;100.00;164706.47;5058537;28;20037;-58
2022/05/27 08:04:17;;;;;;;8.55;3.92;;;;;;;15.97;100.00;164743.03;5064589;28;20078;-58
2022/05/27 08:06:42;;;;;;;8.73;3.90;;;;;;;15.99;100.00;164748.47;5060363;28;20041;-59
2022/05/27 08:09:08;;;;;;;13.23;3.30;;;;;;;16.45;100.00;164869.00;5060662;28;20013;-59
2022/05/27 08:11:33;;;;;;;9.35;2.88;;;;;;;16.76;100.00;164950.28;5059188;28;20033;-60
2022/05/27 08:14:01;;;;;;;13.57;4.03;;;;;;;17.11;100.00;165042.44;5066206;28;20074;-59
2022/05/27 08:16:26;;;;;;;12.63;3.95;;;;;;;17.15;100.00;165050.59;5069351;28;20352;-59
2022/05/27 08:18:52;;;;;;;11.68;3.53;;;;;;;17.67;100.00;165188.84;5071343;28;20032;-59
2022/05/27 08:21:17;;;;;;;15.32;4.15;;;;;;;18.08;100.00;165297.31;5059194;28;20500;-58
2022/05/27 08:23:42;;;;;;;11.38;3.58;;;;;;;17.82;100.00;165226.78;5050655;28;20029;-59
2022/05/27 08:26:08;;;;;;;12.35;3.08;;;;;;;17.73;100.00;165205.09;5041063;28;20041;-59
2022/05/27 08:28:33;;;;;;;8.43;3.95;;;;;;;18.01;100.00;165278.34;5033230;28;22379;-58
2022/05/27 08:30:59;;;;;;;9.70;2.67;;;;;;;17.83;100.00;165230.84;5029775;28;20042;-59
2022/05/27 08:33:25;;;;;;;11.57;2.63;;;;;;;17.87;100.00;165240.31;5032093;28;20040;-59
2022/05/27 08:38:37;;;;;;;10.50;3.67;;;;;;;17.81;100.00;165225.41;5031717;28;20384;-59
2022/05/27 08:41:37;;;;;;;13.85;3.70;;;;;;;17.71;100.00;165198.31;5038027;28;20048;-59
2022/05/27 08:44:26;;;;;;;15.45;4.22;;;;;;;17.31;100.00;165093.97;5049455;28;20385;-58
2022/05/27 08:47:01;;;;;;;8.80;3.65;;;;;;;17.59;100.00;165168.47;5059586;28;20439;-59
2022/05/27 08:49:35;;;;;;;7.25;3.10;;;;;;;17.69;100.00;165194.22;5070798;28;20317;-59
2022/05/27 08:52:14;;;;;;;11.65;3.42;;;;;;;17.89;100.00;165245.75;5069149;28;20071;-58
2022/05/27 08:54:44;;;;;;;12.63;3.90;;;;;;;17.84;100.00;165232.16;5071197;28;20032;-59
2022/05/27 09:00:08;;;;;;;11.98;3.67;;;;;;;18.03;100.00;165283.75;5070615;28;20066;-59
2022/05/27 09:02:40;;;;;;;14.75;3.35;;;;;;;17.75;100.00;165210.53;5069920;28;20048;-59
2022/05/27 09:05:20;;;;;;;12.40;3.55;;;;;;;18.03;100.00;165282.38;5069732;28;20066;-58
2022/05/27 09:07:58;;;;;;;8.68;3.00;;;;;;;18.52;100.00;165412.59;5070542;28;20035;-59
2022/05/27 09:10:43;;;;;;;;;;;;;;;18.31;100.00;165355.63;5067409;28;20440;-59
2022/05/27 09:13:20;;;;;;;15.68;5.10;;;;;;;18.06;100.00;165290.53;5050826;28;19920;-59
2022/05/27 09:16:00;;;;;;;12.15;3.05;;;;;;;18.21;100.00;165329.84;5048713;28;20037;-59
2022/05/27 09:18:40;;;;;;;14.30;3.53;;;;;;;18.30;100.00;165354.25;5051157;28;20024;-60
2022/05/27 09:21:55;;;;;;;16.13;3.83;;;;;;;17.87;100.00;165240.31;5049229;28;20032;-59
2022/05/27 09:25:15;;;;;;;14.73;4.32;;;;;;;17.39;100.00;165114.28;5047211;28;20053;-60
2022/05/27 09:27:51;;;;;;;10.57;3.75;;;;;;;17.12;100.00;165045.16;5068684;28;20119;-59
2022/05/27 09:30:18;;;;;;;10.82;3.47;;;;;;;17.10;100.00;165039.72;5066816;28;20107;-59
2022/05/27 09:32:49;;;;;;;12.70;2.88;;;;;;;17.29;100.00;165088.53;5050664;28;20032;-59
2022/05/27 09:35:21;;;;;;;8.55;3.50;;;;;;;17.05;100.00;165024.88;5049285;28;20079;-60
2022/05/27 09:37:51;;;;;;;8.45;3.38;;;;;;;17.33;100.00;165099.34;5049853;28;20075;-58
2022/05/27 09:40:22;;;;;;;15.05;3.70;;;;;;;17.01;100.00;165015.38;5049239;28;20021;-59
2022/05/27 09:42:59;;;;;;;12.23;3.42;;;;;;;17.09;100.00;165037.00;5050438;28;20029;-59
2022/05/27 09:45:25;;;;;;;15.43;3.92;;;;;;;17.33;100.00;165099.34;5042953;28;20049;-59
2022/05/27 09:47:57;;;;;;;10.98;3.80;;;;;;;17.66;100.00;165186.13;5057806;28;20033;-60
2022/05/27 09:50:28;;;;;;;13.57;4.82;;;;;;;17.67;100.00;165188.84;5054884;28;20063;-59
2022/05/27 09:52:57;;;;;;;16.80;4.82;;;;;;;17.95;100.00;165260.63;5061943;28;20036;-59
2022/05/27 09:55:39;;;;;;;15.43;3.83;;;;;;;18.06;100.00;165290.53;5050948;28;20112;-59
2022/05/27 09:58:06;;;;;;;16.13;4.15;;;;;;;18.13;100.00;165308.19;5069818;28;20097;-59
2022/05/27 10:00:43;;;;;;;16.30;4.68;;;;;;;18.26;100.00;165343.44;5065585;28;20043;-59
2022/05/27 10:03:39;;;;;;;15.20;3.63;;;;;;;18.15;99.78;165313.56;5061449;28;20024;-59
2022/05/27 10:06:11;;;;;;;14.63;4.55;;;;;;;17.90;94.45;165248.47;5055580;28;20067;-59
2022/05/27 10:08:50;;;;;;;15.30;3.55;;;;;;;18.16;100.00;165316.28;5069997;28;20035;-59
2022/05/27 10:11:46;;;;;;;11.43;3.05;;;;;;;17.90;96.96;165248.47;5058009;28;20086;-59
2022/05/27 10:14:23;;;;;;;13.38;3.80;;;;;;;17.77;98.43;165214.56;5035477;28;20037;-59
2022/05/27 10:17:09;;;;;;;12.60;4.07;;;;;;;18.11;100.00;165302.75;5043595;28;20045;-59
2022/05/27 10:19:36;;;;;;;18.95;4.82;;;;;;;18.47;97.13;165397.66;5046670;28;20041;-60
2022/05/27 10:22:08;;;;;;;14.63;4.30;;;;;;;18.38;95.37;165375.94;5059973;28;20048;-59
2022/05/27 10:24:36;;;;;;;16.48;4.30;;;;;;;18.75;92.02;165470.88;5064293;28;20635;-60
2022/05/27 10:27:10;;;;;;;13.32;4.25;;;;;;;18.92;92.93;165517.06;5063967;28;20503;-59
2022/05/27 10:29:57;;;;;;;12.20;4.18;;;;;;;19.24;85.70;165601.16;5065437;28;20028;-59
2022/05/27 10:32:42;;;;;;;12.00;3.22;;;;;;;18.76;86.01;165473.59;5065824;28;20518;-59
2022/05/27 10:35:30;;;;;;;13.27;3.65;;;;;;;18.66;97.18;165449.16;5066544;28;20050;-59
2022/05/27 10:38:36;;;;;;;12.10;3.67;;;;;;;19.22;96.83;165595.72;5064786;28;20135;-59
2022/05/27 10:41:14;;;;;;;18.25;3.58;;;;;;;19.32;96.93;165621.50;5068764;28;20519;-59
2022/05/27 10:43:48;;;;;;;;;;;;;;;18.65;92.02;165446.44;5070191;28;20433;-60
2022/05/27 10:46:29;;;;;;;15.70;4.18;;;;;;;17.95;90.89;165262.06;5068794;28;20364;-60
2022/05/27 10:49:43;;;;;;;11.73;4.32;;;;;;;18.28;94.80;165348.81;5070187;28;20021;-60
2022/05/27 10:52:33;;;;;;;10.00;3.97;;;;;;;18.13;94.02;165308.19;5064400;28;20048;-59
2022/05/27 10:55:10;;;;;;;11.35;4.15;;;;;;;17.67;100.00;165187.44;5070014;28;20024;-59
2022/05/27 11:04:09;;;;;;;17.10;4.60;;;;;;;17.35;100.00;165103.47;5073969;28;20442;-59
2022/05/27 11:07:19;;;;;;;15.30;4.75;;;;;;;18.03;100.00;165283.75;5072235;28;20427;-59
2022/05/27 11:09:56;;;;;;;5.47;2.85;;;;;;;18.25;92.91;165340.72;5073326;28;20037;-59
2022/05/27 11:15:45;;;;;;;17.07;5.27;;;;;;;18.70;100.00;165460.03;5057321;28;20063;-59
2022/05/27 11:18:31;;;;;;;15.85;3.33;;;;;;;18.30;98.53;165354.25;5073750;28;20021;-59
2022/05/27 11:21:18;;;;;;;13.32;4.45;;;;;;;18.55;100.00;165419.34;5071627;28;20040;-59
2022/05/27 11:24:04;;;;;;;10.48;4.88;;;;;;;18.97;97.80;165529.28;5073514;28;20028;-58
2022/05/27 11:26:59;;;;;;;20.27;4.80;;;;;;;19.15;100.00;165576.75;5072028;28;20457;-60
2022/05/27 11:29:35;;;;;;;13.38;4.25;;;;;;;19.31;100.00;165620.16;5073123;28;20034;-60
2022/05/27 11:32:11;;;;;;;14.43;5.38;;;;;;;19.09;97.98;165560.47;5071728;28;20144;-59
2022/05/27 11:34:55;;;;;;;8.25;3.75;;;;;;;19.19;98.62;165587.56;5073086;28;20051;-60
2022/05/27 11:37:29;;;;;;;18.08;3.78;;;;;;;19.86;90.76;165762.66;5071901;28;20041;-60
2022/05/27 11:40:30;;;;;;;20.00;4.25;;;;;;;19.72;100.00;165727.34;5073259;28;20044;-60
2022/05/27 11:43:09;;;;;;;17.17;3.38;;;;;;;19.72;94.24;165725.97;5071478;28;20047;-60
2022/05/27 11:45:35;;;;;;;14.77;4.32;;;;;;;19.52;89.98;165674.41;5071726;28;20037;-60
2022/05/27 11:48:43;;;;;;;25.67;3.97;;;;;;;19.31;92.33;165620.16;5072854;28;20207;-59
2022/05/27 11:51:36;;;;;;;11.40;3.38;;;;;;;19.29;83.85;165613.34;5056296;28;20400;-59
2022/05/27 11:54:23;;;;;;;17.33;4.28;;;;;;;19.63;86.48;165702.91;5072915;28;20029;-60
2022/05/27 11:57:17;;;;;;;15.43;3.97;;;;;;;19.83;87.54;165755.84;5071449;28;20119;-60
2022/05/27 11:59:57;;;;;;;12.30;4.57;;;;;;;18.99;90.67;165536.03;5071334;28;20864;-60
2022/05/27 12:02:48;;;;;;;16.48;3.33;;;;;;;18.83;89.77;165493.97;5071484;28;20033;-60
2022/05/27 12:05:16;;;;;;;12.50;4.03;;;;;;;18.75;93.43;165470.88;5071365;28;20410;-59